sensor_id;sensor_type;location;lat;lon;timestamp;pressure;altitude;pressure_sealevel;temperature;humidity
27304;BME280;14791;52.392;13.092;2023-05-11T00:01:06;100939.17;;;22.12;41.85
27304;BME280;14791;52.392;13.092;2023-05-11T00:03:35;100939.66;;;22.07;41.92
27304;BME280;14791;52.392;13.092;2023-05-11T00:06:05;100946.63;;;22.02;41.93
27304;BME280;14791;52.392;13.092;2023-05-11T00:08:34;100933.86;;;21.94;41.97
27304;BME280;14791;52.392;13.092;2023-05-11T00:11:06;100944.53;;;21.87;42.07
27304;BME280;14791;52.392;13.092;2023-05-11T00:13:35;100948.76;;;21.82;42.15
27304;BME280;14791;52.392;13.092;2023-05-11T00:16:04;100946.86;;;21.74;42.38
27304;BME280;14791;52.392;13.092;2023-05-11T00:18:33;100947.64;;;21.66;42.54
27304;BME280;14791;52.392;13.092;2023-05-11T00:21:02;100947.61;;;21.58;42.61
27304;BME280;14791;52.392;13.092;2023-05-11T00:23:31;100938.55;;;21.50;42.57
27304;BME280;14791;52.392;13.092;2023-05-11T00:26:00;100941.08;;;21.43;42.81
27304;BME280;14791;52.392;13.092;2023-05-11T00:28:29;100940.83;;;21.36;42.78
27304;BME280;14791;52.392;13.092;2023-05-11T00:30:58;100939.11;;;21.31;42.91
27304;BME280;14791;52.392;13.092;2023-05-11T00:33:27;100940.77;;;21.28;42.95
27304;BME280;14791;52.392;13.092;2023-05-11T00:35:55;100932.23;;;21.23;43.05
27304;BME280;14791;52.392;13.092;2023-05-11T00:38:25;100929.85;;;21.20;43.18
27304;BME280;14791;52.392;13.092;2023-05-11T00:40:54;100931.53;;;21.17;43.20
27304;BME280;14791;52.392;13.092;2023-05-11T00:43:24;100933.70;;;21.13;43.22
27304;BME280;14791;52.392;13.092;2023-05-11T00:45:53;100934.54;;;21.10;43.23
27304;BME280;14791;52.392;13.092;2023-05-11T00:48:22;100930.42;;;21.06;43.28
27304;BME280;14791;52.392;13.092;2023-05-11T00:50:51;100938.20;;;21.00;43.29
27304;BME280;14791;52.392;13.092;2023-05-11T00:53:21;100935.44;;;20.96;43.28
27304;BME280;14791;52.392;13.092;2023-05-11T00:55:50;100920.98;;;20.92;43.25
27304;BME280;14791;52.392;13.092;2023-05-11T00:58:19;100930.95;;;20.87;43.23
27304;BME280;14791;52.392;13.092;2023-05-11T01:00:48;100928.22;;;20.83;43.46
27304;BME280;14791;52.392;13.092;2023-05-11T01:03:18;100923.74;;;20.78;43.60
27304;BME280;14791;52.392;13.092;2023-05-11T01:05:57;100930.14;;;20.73;43.63
27304;BME280;14791;52.392;13.092;2023-05-11T01:08:56;100927.90;;;20.68;43.53
27304;BME280;14791;52.392;13.092;2023-05-11T01:11:10;100925.31;;;20.63;43.53
27304;BME280;14791;52.392;13.092;2023-05-11T01:13:31;100921.84;;;20.56;43.55
27304;BME280;14791;52.392;13.092;2023-05-11T01:16:08;100921.80;;;20.52;43.54
27304;BME280;14791;52.392;13.092;2023-05-11T01:18:45;100917.69;;;20.48;43.56
27304;BME280;14791;52.392;13.092;2023-05-11T01:21:15;100920.86;;;20.44;43.59
27304;BME280;14791;52.392;13.092;2023-05-11T01:24:43;100922.34;;;20.38;43.64
27304;BME280;14791;52.392;13.092;2023-05-11T01:32:22;100925.38;;;20.21;43.82
27304;BME280;14791;52.392;13.092;2023-05-11T01:35:07;100929.34;;;20.13;43.88
27304;BME280;14791;52.392;13.092;2023-05-11T01:37:37;100927.08;;;20.08;43.84
27304;BME280;14791;52.392;13.092;2023-05-11T01:40:12;100923.64;;;20.02;43.93
27304;BME280;14791;52.392;13.092;2023-05-11T01:42:47;100923.07;;;19.98;44.04
27304;BME280;14791;52.392;13.092;2023-05-11T01:45:18;100929.31;;;19.95;44.08
27304;BME280;14791;52.392;13.092;2023-05-11T01:47:49;100931.97;;;19.91;44.09
27304;BME280;14791;52.392;13.092;2023-05-11T01:50:19;100930.55;;;19.87;44.23
27304;BME280;14791;52.392;13.092;2023-05-11T01:52:51;100942.21;;;19.83;44.30
27304;BME280;14791;52.392;13.092;2023-05-11T01:55:21;100939.10;;;19.78;44.29
27304;BME280;14791;52.392;13.092;2023-05-11T01:57:53;100941.89;;;19.72;44.38
27304;BME280;14791;52.392;13.092;2023-05-11T02:00:22;100939.99;;;19.69;44.43
27304;BME280;14791;52.392;13.092;2023-05-11T02:02:54;100940.74;;;19.65;44.49
27304;BME280;14791;52.392;13.092;2023-05-11T02:05:24;100942.74;;;19.63;44.46
27304;BME280;14791;52.392;13.092;2023-05-11T02:07:55;100942.70;;;19.59;44.50
27304;BME280;14791;52.392;13.092;2023-05-11T02:10:26;100945.05;;;19.58;44.51
27304;BME280;14791;52.392;13.092;2023-05-11T02:12:56;100948.06;;;19.55;44.63
27304;BME280;14791;52.392;13.092;2023-05-11T02:15:26;100950.06;;;19.53;44.74
27304;BME280;14791;52.392;13.092;2023-05-11T02:17:56;100956.12;;;19.51;44.74
27304;BME280;14791;52.392;13.092;2023-05-11T02:20:26;100958.63;;;19.48;44.82
27304;BME280;14791;52.392;13.092;2023-05-11T02:22:57;100953.64;;;19.44;44.85
27304;BME280;14791;52.392;13.092;2023-05-11T02:25:28;100960.72;;;19.41;44.84
27304;BME280;14791;52.392;13.092;2023-05-11T02:27:57;100953.41;;;19.37;44.86
27304;BME280;14791;52.392;13.092;2023-05-11T02:30:27;100956.38;;;19.34;44.86
27304;BME280;14791;52.392;13.092;2023-05-11T02:33:01;100955.33;;;19.31;44.90
27304;BME280;14791;52.392;13.092;2023-05-11T02:35:36;100958.67;;;19.29;44.97
27304;BME280;14791;52.392;13.092;2023-05-11T02:38:04;100959.48;;;19.25;45.02
27304;BME280;14791;52.392;13.092;2023-05-11T02:40:38;100962.45;;;19.22;45.10
27304;BME280;14791;52.392;13.092;2023-05-11T02:43:21;100963.13;;;19.20;45.06
27304;BME280;14791;52.392;13.092;2023-05-11T02:45:42;100961.70;;;19.16;45.13
27304;BME280;14791;52.392;13.092;2023-05-11T02:48:18;100957.06;;;19.12;45.20
27304;BME280;14791;52.392;13.092;2023-05-11T02:50:48;100959.22;;;19.09;45.25
27304;BME280;14791;52.392;13.092;2023-05-11T02:53:19;100961.00;;;19.04;45.28
27304;BME280;14791;52.392;13.092;2023-05-11T02:55:50;100961.78;;;19.01;45.20
27304;BME280;14791;52.392;13.092;2023-05-11T02:58:19;100961.73;;;18.97;45.23
27304;BME280;14791;52.392;13.092;2023-05-11T03:00:50;100960.64;;;18.94;45.27
27304;BME280;14791;52.392;13.092;2023-05-11T03:03:19;100957.89;;;18.89;45.41
27304;BME280;14791;52.392;13.092;2023-05-11T03:05:48;100967.49;;;18.88;45.47
27304;BME280;14791;52.392;13.092;2023-05-11T03:08:18;100965.93;;;18.85;45.60
27304;BME280;14791;52.392;13.092;2023-05-11T03:10:48;100955.23;;;18.84;45.64
27304;BME280;14791;52.392;13.092;2023-05-11T03:13:19;100960.81;;;18.82;45.56
27304;BME280;14791;52.392;13.092;2023-05-11T03:15:51;100957.39;;;18.80;45.58
27304;BME280;14791;52.392;13.092;2023-05-11T03:18:21;100959.03;;;18.77;45.58
27304;BME280;14791;52.392;13.092;2023-05-11T03:20:51;100957.30;;;18.76;45.65
27304;BME280;14791;52.392;13.092;2023-05-11T03:23:21;100959.13;;;18.76;45.79
27304;BME280;14791;52.392;13.092;2023-05-11T03:25:51;100954.86;;;18.73;45.82
27304;BME280;14791;52.392;13.092;2023-05-11T03:28:22;100963.11;;;18.71;45.84
27304;BME280;14791;52.392;13.092;2023-05-11T03:30:53;100960.70;;;18.68;45.91
27304;BME280;14791;52.392;13.092;2023-05-11T03:33:22;100959.64;;;18.65;46.04
27304;BME280;14791;52.392;13.092;2023-05-11T03:35:53;100963.83;;;18.64;46.13
27304;BME280;14791;52.392;13.092;2023-05-11T03:38:24;100960.91;;;18.61;46.10
27304;BME280;14791;52.392;13.092;2023-05-11T03:40:57;100961.03;;;18.60;46.14
27304;BME280;14791;52.392;13.092;2023-05-11T03:43:29;100960.69;;;18.59;46.19
27304;BME280;14791;52.392;13.092;2023-05-11T03:46:00;100955.79;;;18.58;46.24
27304;BME280;14791;52.392;13.092;2023-05-11T03:48:31;100961.33;;;18.57;46.24
27304;BME280;14791;52.392;13.092;2023-05-11T03:51:00;100962.17;;;18.57;46.30
27304;BME280;14791;52.392;13.092;2023-05-11T03:53:31;100959.98;;;18.57;46.24
27304;BME280;14791;52.392;13.092;2023-05-11T03:55:59;100960.82;;;18.57;46.26
27304;BME280;14791;52.392;13.092;2023-05-11T03:58:30;100955.92;;;18.57;46.23
27304;BME280;14791;52.392;13.092;2023-05-11T04:01:00;100959.63;;;18.56;46.23
27304;BME280;14791;52.392;13.092;2023-05-11T04:03:29;100960.48;;;18.56;46.24
27304;BME280;14791;52.392;13.092;2023-05-11T04:05:58;100956.92;;;18.56;46.22
27304;BME280;14791;52.392;13.092;2023-05-11T04:08:27;100968.44;;;18.58;46.24
27304;BME280;14791;52.392;13.092;2023-05-11T04:10:56;100966.95;;;18.59;46.20
27304;BME280;14791;52.392;13.092;2023-05-11T04:13:25;100962.39;;;18.60;46.16
27304;BME280;14791;52.392;13.092;2023-05-11T04:15:54;100969.88;;;18.62;46.11
27304;BME280;14791;52.392;13.092;2023-05-11T04:18:22;100971.09;;;18.63;46.03
27304;BME280;14791;52.392;13.092;2023-05-11T04:20:51;100968.60;;;18.66;45.94
27304;BME280;14791;52.392;13.092;2023-05-11T04:23:20;100967.09;;;18.67;45.84
27304;BME280;14791;52.392;13.092;2023-05-11T04:25:53;100968.31;;;18.69;45.84
27304;BME280;14791;52.392;13.092;2023-05-11T04:28:22;100967.17;;;18.71;45.79
27304;BME280;14791;52.392;13.092;2023-05-11T04:30:54;100972.45;;;18.73;45.68
27304;BME280;14791;52.392;13.092;2023-05-11T04:33:23;100972.19;;;18.76;45.61
27304;BME280;14791;52.392;13.092;2023-05-11T04:35:54;100972.91;;;18.78;45.57
27304;BME280;14791;52.392;13.092;2023-05-11T04:38:24;100980.22;;;18.82;45.53
27304;BME280;14791;52.392;13.092;2023-05-11T04:40:53;100979.80;;;18.86;45.48
27304;BME280;14791;52.392;13.092;2023-05-11T04:43:23;100973.48;;;18.91;45.39
27304;BME280;14791;52.392;13.092;2023-05-11T04:45:52;100980.67;;;18.97;45.35
27304;BME280;14791;52.392;13.092;2023-05-11T04:48:22;100978.39;;;19.02;45.22
27304;BME280;14791;52.392;13.092;2023-05-11T04:50:53;100981.52;;;19.07;45.05
27304;BME280;14791;52.392;13.092;2023-05-11T04:53:24;100989.92;;;19.13;44.96
27304;BME280;14791;52.392;13.092;2023-05-11T04:55:53;100991.19;;;19.19;44.83
27304;BME280;14791;52.392;13.092;2023-05-11T04:58:22;100984.84;;;19.24;44.69
27304;BME280;14791;52.392;13.092;2023-05-11T05:00:51;100993.75;;;19.30;44.60
27304;BME280;14791;52.392;13.092;2023-05-11T05:03:20;100988.75;;;19.36;44.49
27304;BME280;14791;52.392;13.092;2023-05-11T05:05:50;100990.85;;;19.42;44.33
27304;BME280;14791;52.392;13.092;2023-05-11T05:08:18;100984.16;;;19.46;44.18
27304;BME280;14791;52.392;13.092;2023-05-11T05:10:48;100988.29;;;19.50;44.09
27304;BME280;14791;52.392;13.092;2023-05-11T05:13:18;100987.84;;;19.54;44.02
27304;BME280;14791;52.392;13.092;2023-05-11T05:15:47;100991.81;;;19.60;43.92
27304;BME280;14791;52.392;13.092;2023-05-11T05:18:16;100994.93;;;19.65;43.81
27304;BME280;14791;52.392;13.092;2023-05-11T05:20:47;100998.96;;;19.71;43.69
27304;BME280;14791;52.392;13.092;2023-05-11T05:23:16;100995.81;;;19.75;43.56
27304;BME280;14791;52.392;13.092;2023-05-11T05:25:45;100999.27;;;19.82;43.43
27304;BME280;14791;52.392;13.092;2023-05-11T05:28:14;101000.17;;;19.86;43.31
27304;BME280;14791;52.392;13.092;2023-05-11T05:30:43;101000.75;;;19.90;43.24
27304;BME280;14791;52.392;13.092;2023-05-11T05:33:13;101002.84;;;19.96;43.14
27304;BME280;14791;52.392;13.092;2023-05-11T05:35:42;101002.27;;;20.02;43.01
27304;BME280;14791;52.392;13.092;2023-05-11T05:38:12;101006.93;;;20.10;42.92
27304;BME280;14791;52.392;13.092;2023-05-11T05:40:42;101008.55;;;20.16;42.81
27304;BME280;14791;52.392;13.092;2023-05-11T05:43:11;101006.06;;;20.23;42.58
27304;BME280;14791;52.392;13.092;2023-05-11T05:45:40;101011.41;;;20.29;42.37
27304;BME280;14791;52.392;13.092;2023-05-11T05:48:09;101009.42;;;20.35;42.20
27304;BME280;14791;52.392;13.092;2023-05-11T05:50:39;101004.76;;;20.41;42.06
27304;BME280;14791;52.392;13.092;2023-05-11T05:53:08;101013.80;;;20.46;42.04
27304;BME280;14791;52.392;13.092;2023-05-11T05:55:38;101016.40;;;20.51;41.99
27304;BME280;14791;52.392;13.092;2023-05-11T05:58:06;101018.69;;;20.56;41.86
27304;BME280;14791;52.392;13.092;2023-05-11T06:00:36;101016.23;;;20.63;41.71
27304;BME280;14791;52.392;13.092;2023-05-11T06:03:06;101022.74;;;20.70;41.63
27304;BME280;14791;52.392;13.092;2023-05-11T06:05:36;101026.55;;;20.77;41.51
27304;BME280;14791;52.392;13.092;2023-05-11T06:08:05;101021.88;;;20.83;41.36
27304;BME280;14791;52.392;13.092;2023-05-11T06:10:34;101022.73;;;20.88;41.29
27304;BME280;14791;52.392;13.092;2023-05-11T06:13:03;101025.55;;;20.96;41.10
27304;BME280;14791;52.392;13.092;2023-05-11T06:15:33;101023.92;;;21.03;41.06
27304;BME280;14791;52.392;13.092;2023-05-11T06:18:04;101032.30;;;21.10;40.90
27304;BME280;14791;52.392;13.092;2023-05-11T06:20:33;101025.89;;;21.15;40.79
27304;BME280;14791;52.392;13.092;2023-05-11T06:23:03;101029.70;;;21.22;40.63
27304;BME280;14791;52.392;13.092;2023-05-11T06:25:34;101030.41;;;21.28;40.65
27304;BME280;14791;52.392;13.092;2023-05-11T06:28:03;101021.64;;;21.34;40.56
27304;BME280;14791;52.392;13.092;2023-05-11T06:30:33;101028.18;;;21.41;40.45
27304;BME280;14791;52.392;13.092;2023-05-11T06:33:03;101028.23;;;21.50;40.31
27304;BME280;14791;52.392;13.092;2023-05-11T06:35:32;101031.02;;;21.58;40.18
27304;BME280;14791;52.392;13.092;2023-05-11T06:38:01;101033.78;;;21.66;40.06
27304;BME280;14791;52.392;13.092;2023-05-11T06:40:30;101032.98;;;21.74;40.04
27304;BME280;14791;52.392;13.092;2023-05-11T06:43:00;101032.20;;;21.81;39.73
27304;BME280;14791;52.392;13.092;2023-05-11T06:45:30;101034.63;;;21.88;39.57
27304;BME280;14791;52.392;13.092;2023-05-11T06:47:59;101027.31;;;21.93;39.39
27304;BME280;14791;52.392;13.092;2023-05-11T06:50:29;101030.23;;;22.00;39.31
27304;BME280;14791;52.392;13.092;2023-05-11T06:52:57;101032.66;;;22.07;39.23
27304;BME280;14791;52.392;13.092;2023-05-11T06:55:28;101032.34;;;22.14;39.16
27304;BME280;14791;52.392;13.092;2023-05-11T06:57:57;101031.74;;;22.20;39.06
27304;BME280;14791;52.392;13.092;2023-05-11T07:00:26;101029.71;;;22.26;39.02
27304;BME280;14791;52.392;13.092;2023-05-11T07:02:55;101030.42;;;22.33;38.84
27304;BME280;14791;52.392;13.092;2023-05-11T07:05:24;101036.07;;;22.39;38.67
27304;BME280;14791;52.392;13.092;2023-05-11T07:07:53;101027.75;;;22.45;38.50
27304;BME280;14791;52.392;13.092;2023-05-11T07:10:22;101024.02;;;22.50;38.41
27304;BME280;14791;52.392;13.092;2023-05-11T07:12:51;101025.73;;;22.55;38.28
27304;BME280;14791;52.392;13.092;2023-05-11T07:15:20;101030.20;;;22.60;38.21
27304;BME280;14791;52.392;13.092;2023-05-11T07:20:16;101030.05;;;22.70;37.98
27304;BME280;14791;52.392;13.092;2023-05-11T07:22:45;101031.23;;;22.76;37.98
27304;BME280;14791;52.392;13.092;2023-05-11T07:25:14;101035.84;;;22.83;37.92
27304;BME280;14791;52.392;13.092;2023-05-11T07:27:43;101027.86;;;22.90;37.81
27304;BME280;14791;52.392;13.092;2023-05-11T07:30:12;101037.78;;;22.99;37.71
27304;BME280;14791;52.392;13.092;2023-05-11T07:32:41;101027.56;;;23.09;37.63
27304;BME280;14791;52.392;13.092;2023-05-11T07:35:10;101030.29;;;23.22;37.82
27304;BME280;14791;52.392;13.092;2023-05-11T07:37:39;101033.89;;;23.34;37.59
27304;BME280;14791;52.392;13.092;2023-05-11T07:40:09;101032.31;;;23.48;37.46
27304;BME280;14791;52.392;13.092;2023-05-11T07:42:37;101034.02;;;23.62;37.36
27304;BME280;14791;52.392;13.092;2023-05-11T07:45:07;101029.41;;;23.74;37.15
27304;BME280;14791;52.392;13.092;2023-05-11T07:47:36;101028.89;;;23.87;36.96
27304;BME280;14791;52.392;13.092;2023-05-11T07:50:06;101033.63;;;23.97;36.83
27304;BME280;14791;52.392;13.092;2023-05-11T07:52:35;101030.17;;;24.08;36.70
27304;BME280;14791;52.392;13.092;2023-05-11T07:55:04;101034.59;;;24.17;36.91
27304;BME280;14791;52.392;13.092;2023-05-11T07:57:33;101030.45;;;24.25;36.49
27304;BME280;14791;52.392;13.092;2023-05-11T08:00:03;101034.52;;;24.33;36.29
27304;BME280;14791;52.392;13.092;2023-05-11T08:02:34;101035.16;;;24.39;36.24
27304;BME280;14791;52.392;13.092;2023-05-11T08:05:03;101032.41;;;24.44;36.03
27304;BME280;14791;52.392;13.092;2023-05-11T08:07:33;101032.44;;;24.48;36.01
27304;BME280;14791;52.392;13.092;2023-05-11T08:10:01;101039.94;;;24.50;35.93
27304;BME280;14791;52.392;13.092;2023-05-11T08:12:30;101031.38;;;24.53;35.81
27304;BME280;14791;52.392;13.092;2023-05-11T08:15:00;101032.58;;;24.54;35.64
27304;BME280;14791;52.392;13.092;2023-05-11T08:17:29;101027.44;;;24.55;35.81
27304;BME280;14791;52.392;13.092;2023-05-11T08:19:59;101034.74;;;24.59;35.49
27304;BME280;14791;52.392;13.092;2023-05-11T08:22:28;101030.31;;;24.62;35.31
27304;BME280;14791;52.392;13.092;2023-05-11T08:24:57;101036.77;;;24.65;35.15
27304;BME280;14791;52.392;13.092;2023-05-11T08:27:26;101029.58;;;24.68;35.15
27304;BME280;14791;52.392;13.092;2023-05-11T08:29:55;101031.97;;;24.71;35.08
27304;BME280;14791;52.392;13.092;2023-05-11T08:32:24;101034.16;;;24.76;35.13
27304;BME280;14791;52.392;13.092;2023-05-11T08:34:53;101031.22;;;24.81;35.12
27304;BME280;14791;52.392;13.092;2023-05-11T08:37:22;101029.11;;;24.88;34.94
27304;BME280;14791;52.392;13.092;2023-05-11T08:39:51;101032.17;;;24.93;34.88
27304;BME280;14791;52.392;13.092;2023-05-11T08:42:28;101034.16;;;24.99;35.00
27304;BME280;14791;52.392;13.092;2023-05-11T08:44:54;101029.52;;;25.03;34.77
27304;BME280;14791;52.392;13.092;2023-05-11T08:47:25;101028.80;;;25.10;34.60
27304;BME280;14791;52.392;13.092;2023-05-11T08:49:55;101032.00;;;25.13;34.45
27304;BME280;14791;52.392;13.092;2023-05-11T08:52:25;101030.79;;;25.20;34.38
27304;BME280;14791;52.392;13.092;2023-05-11T08:54:57;101024.25;;;25.25;34.33
27304;BME280;14791;52.392;13.092;2023-05-11T08:57:28;101027.42;;;25.33;34.31
27304;BME280;14791;52.392;13.092;2023-05-11T09:00:02;101033.86;;;25.40;34.06
27304;BME280;14791;52.392;13.092;2023-05-11T09:02:32;101037.75;;;25.45;33.96
27304;BME280;14791;52.392;13.092;2023-05-11T09:05:00;101031.73;;;25.50;33.87
27304;BME280;14791;52.392;13.092;2023-05-11T09:07:32;101030.83;;;25.54;33.68
27304;BME280;14791;52.392;13.092;2023-05-11T09:10:03;101026.70;;;25.58;33.66
27304;BME280;14791;52.392;13.092;2023-05-11T09:12:32;101027.83;;;25.63;33.52
27304;BME280;14791;52.392;13.092;2023-05-11T09:15:01;101029.69;;;25.67;33.43
27304;BME280;14791;52.392;13.092;2023-05-11T09:17:30;101033.55;;;25.73;33.31
27304;BME280;14791;52.392;13.092;2023-05-11T09:20:03;101035.20;;;25.78;33.28
27304;BME280;14791;52.392;13.092;2023-05-11T09:22:34;101027.80;;;25.82;33.42
27304;BME280;14791;52.392;13.092;2023-05-11T09:25:04;101021.80;;;25.87;33.45
27304;BME280;14791;52.392;13.092;2023-05-11T09:27:34;101030.11;;;25.94;33.08
27304;BME280;14791;52.392;13.092;2023-05-11T09:30:15;101024.39;;;25.99;33.12
27304;BME280;14791;52.392;13.092;2023-05-11T09:32:56;101021.93;;;26.04;32.94
27304;BME280;14791;52.392;13.092;2023-05-11T09:35:30;101028.03;;;26.10;33.00
27304;BME280;14791;52.392;13.092;2023-05-11T09:38:07;101022.83;;;26.16;33.15
27304;BME280;14791;52.392;13.092;2023-05-11T09:40:39;101027.34;;;26.23;32.94
27304;BME280;14791;52.392;13.092;2023-05-11T09:43:27;101024.88;;;26.28;32.77
27304;BME280;14791;52.392;13.092;2023-05-11T09:45:57;101026.03;;;26.34;32.71
27304;BME280;14791;52.392;13.092;2023-05-11T09:48:31;101012.97;;;26.36;32.38
27304;BME280;14791;52.392;13.092;2023-05-11T09:51:03;101022.85;;;26.41;32.39
27304;BME280;14791;52.392;13.092;2023-05-11T09:53:34;101025.52;;;26.45;32.32
27304;BME280;14791;52.392;13.092;2023-05-11T09:56:04;101020.66;;;26.51;32.66
27304;BME280;14791;52.392;13.092;2023-05-11T09:58:47;101010.52;;;26.56;32.51
27304;BME280;14791;52.392;13.092;2023-05-11T10:01:19;101018.08;;;26.65;32.50
27304;BME280;14791;52.392;13.092;2023-05-11T10:03:50;101005.52;;;26.70;32.37
27304;BME280;14791;52.392;13.092;2023-05-11T10:06:21;101004.85;;;26.79;32.13
27304;BME280;14791;52.392;13.092;2023-05-11T10:08:51;100999.27;;;26.87;31.91
27304;BME280;14791;52.392;13.092;2023-05-11T10:11:24;101007.34;;;26.95;31.82
27304;BME280;14791;52.392;13.092;2023-05-11T10:13:53;101000.69;;;27.05;31.47
27304;BME280;14791;52.392;13.092;2023-05-11T10:16:22;101001.41;;;27.13;31.36
27304;BME280;14791;52.392;13.092;2023-05-11T10:18:51;101002.14;;;27.22;30.95
27304;BME280;14791;52.392;13.092;2023-05-11T10:21:20;101002.66;;;27.32;30.59
27304;BME280;14791;52.392;13.092;2023-05-11T10:23:50;100992.91;;;27.41;30.30
27304;BME280;14791;52.392;13.092;2023-05-11T10:26:19;100999.94;;;27.50;30.21
27304;BME280;14791;52.392;13.092;2023-05-11T10:28:48;100995.48;;;27.60;30.20
27304;BME280;14791;52.392;13.092;2023-05-11T10:31:19;100985.20;;;27.68;29.97
27304;BME280;14791;52.392;13.092;2023-05-11T10:33:51;100981.25;;;27.77;29.59
27304;BME280;14791;52.392;13.092;2023-05-11T10:36:22;100987.66;;;27.85;29.37
27304;BME280;14791;52.392;13.092;2023-05-11T10:38:51;100978.83;;;27.96;29.49
27304;BME280;14791;52.392;13.092;2023-05-11T10:49:56;100989.13;;;28.29;29.21
27304;BME280;14791;52.392;13.092;2023-05-11T10:52:42;100991.30;;;28.40;29.11
27304;BME280;14791;52.392;13.092;2023-05-11T10:55:30;100978.34;;;28.51;28.64
27304;BME280;14791;52.392;13.092;2023-05-11T11:03:23;100979.77;;;28.78;28.92
27304;BME280;14791;52.392;13.092;2023-05-11T11:05:52;100986.13;;;28.85;28.39
27304;BME280;14791;52.392;13.092;2023-05-11T11:08:21;100977.61;;;28.97;27.98
27304;BME280;14791;52.392;13.092;2023-05-11T11:10:50;100982.89;;;29.05;27.65
27304;BME280;14791;52.392;13.092;2023-05-11T11:13:19;100980.28;;;29.15;28.19
27304;BME280;14791;52.392;13.092;2023-05-11T11:18:29;100981.88;;;29.33;27.67
27304;BME280;14791;52.392;13.092;2023-05-11T11:21:01;100988.32;;;29.43;27.84
27304;BME280;14791;52.392;13.092;2023-05-11T11:26:12;100988.92;;;29.65;27.09
27304;BME280;14791;52.392;13.092;2023-05-11T11:31:30;100982.74;;;29.89;26.65
27304;BME280;14791;52.392;13.092;2023-05-11T11:42:13;100982.19;;;30.33;26.34
27304;BME280;14791;52.392;13.092;2023-05-11T11:44:43;100986.39;;;30.42;26.07
27304;BME280;14791;52.392;13.092;2023-05-11T11:47:20;100993.34;;;30.51;25.75
27304;BME280;14791;52.392;13.092;2023-05-11T11:49:51;100982.97;;;30.62;25.31
27304;BME280;14791;52.392;13.092;2023-05-11T11:55:01;100985.37;;;30.90;25.61
27304;BME280;14791;52.392;13.092;2023-05-11T12:00:09;100977.20;;;31.18;24.93
27304;BME280;14791;52.392;13.092;2023-05-11T12:02:43;100989.28;;;31.33;25.18
27304;BME280;14791;52.392;13.092;2023-05-11T12:05:16;100994.86;;;31.42;24.67
27304;BME280;14791;52.392;13.092;2023-05-11T12:07:48;100987.95;;;31.42;24.60
27304;BME280;14791;52.392;13.092;2023-05-11T12:10:20;100987.01;;;31.39;24.55
27304;BME280;14791;52.392;13.092;2023-05-11T12:12:50;100998.31;;;31.31;24.40
27304;BME280;14791;52.392;13.092;2023-05-11T12:15:25;100990.84;;;31.22;24.36
27304;BME280;14791;52.392;13.092;2023-05-11T12:17:55;100995.81;;;31.13;24.32
27304;BME280;14791;52.392;13.092;2023-05-11T12:20:24;101002.09;;;31.11;24.33
27304;BME280;14791;52.392;13.092;2023-05-11T12:22:53;101001.28;;;31.20;24.78
27304;BME280;14791;52.392;13.092;2023-05-11T12:25:23;100994.39;;;31.45;24.42
27304;BME280;14791;52.392;13.092;2023-05-11T12:27:56;101005.95;;;31.88;24.55
27304;BME280;14791;52.392;13.092;2023-05-11T12:30:34;101005.53;;;32.28;23.90
27304;BME280;14791;52.392;13.092;2023-05-11T12:33:03;101006.72;;;32.60;23.83
27304;BME280;14791;52.392;13.092;2023-05-11T12:35:34;101003.56;;;32.87;23.09
27304;BME280;14791;52.392;13.092;2023-05-11T12:38:02;101000.84;;;33.19;22.95
27304;BME280;14791;52.392;13.092;2023-05-11T12:40:31;101005.44;;;33.49;22.47
27304;BME280;14791;52.392;13.092;2023-05-11T12:43:01;101008.77;;;33.84;22.60
27304;BME280;14791;52.392;13.092;2023-05-11T12:45:30;101005.50;;;34.10;22.04
27304;BME280;14791;52.392;13.092;2023-05-11T12:48:00;101006.05;;;34.36;21.79
27304;BME280;14791;52.392;13.092;2023-05-11T12:50:30;101012.23;;;34.69;21.52
27304;BME280;14791;52.392;13.092;2023-05-11T12:53:16;101007.80;;;35.14;21.46
27304;BME280;14791;52.392;13.092;2023-05-11T12:55:57;101001.41;;;35.47;21.09
27304;BME280;14791;52.392;13.092;2023-05-11T12:58:37;101009.77;;;35.67;20.73
27304;BME280;14791;52.392;13.092;2023-05-11T13:01:07;101003.21;;;35.73;20.54
27304;BME280;14791;52.392;13.092;2023-05-11T13:03:36;100995.71;;;35.73;20.36
27304;BME280;14791;52.392;13.092;2023-05-11T13:06:06;101002.34;;;35.72;20.21
27304;BME280;14791;52.392;13.092;2023-05-11T13:08:37;101001.71;;;35.85;20.09
27304;BME280;14791;52.392;13.092;2023-05-11T13:11:22;100999.00;;;36.09;19.86
27304;BME280;14791;52.392;13.092;2023-05-11T13:13:55;101003.19;;;36.34;19.75
27304;BME280;14791;52.392;13.092;2023-05-11T13:16:29;101004.99;;;36.45;19.48
27304;BME280;14791;52.392;13.092;2023-05-11T13:19:00;101004.41;;;36.43;19.34
27304;BME280;14791;52.392;13.092;2023-05-11T13:21:31;101002.55;;;36.27;19.18
27304;BME280;14791;52.392;13.092;2023-05-11T13:24:00;100999.16;;;36.03;19.17
27304;BME280;14791;52.392;13.092;2023-05-11T13:26:30;101005.44;;;35.73;19.81
27304;BME280;14791;52.392;13.092;2023-05-11T13:29:00;101012.44;;;35.42;20.58
27304;BME280;14791;52.392;13.092;2023-05-11T13:31:29;101010.78;;;35.10;20.00
27304;BME280;14791;52.392;13.092;2023-05-11T13:33:58;101004.37;;;34.78;19.94
27304;BME280;14791;52.392;13.092;2023-05-11T13:36:27;101008.70;;;34.45;19.53
27304;BME280;14791;52.392;13.092;2023-05-11T13:38:56;101004.22;;;34.16;19.68
27304;BME280;14791;52.392;13.092;2023-05-11T13:41:24;101006.11;;;33.89;19.95